• Join FlightAware (Why Join?)
  • Login
  • US Flag 
03:18PM EDT


 

Airport Tracker/Info


-or-


 

Live Flight TrackerFlight Track Log ✈ ACA7017 ✈ 29-Oct-2013 ✈ KCPS - CYWG

Flight Track Log - Related Links

Times and Time Zones

All times are in EDT time to prevent confusion due to time zone crossing. See the ACA7017 flight status page for this flight to view local times or setup timezone preferences in your user account.

Time Position Orientation Groundspeed Altitude Reporting Facility
EDT Latitude Longitude Course Direction KTS MPH feet Rate Location/Type
11:52PM 38.5833 -90.2500 356° North 187 215 4,200  Level Gateway (St. Louis) TRACON
11:53PM 38.6533 -90.2714 347° North 229 264 7,600 3,180 Climbing Kansas City Center
11:54PM 38.7308 -90.2831 353° North 257 296 11,000 2,940 Climbing Kansas City Center
11:55PM 38.8064 -90.2961 352° North 276 318 13,600 2,280 Climbing Kansas City Center
11:56PM 38.8911 -90.3094 353° North 314 361 15,600 2,400 Climbing Kansas City Center
11:57PM 39.1712 -90.4633 356° North  Level Estimated
11:57PM 38.9911 -90.3244 353° North 338 389 18,500  Level Kansas City Center
11:58PM 39.0908 -90.3408 353° North 356 410 21,200 2,220 Climbing Kansas City Center
11:59PM 39.1864 -90.3833 341° North 362 417 23,000 2,160 Climbing Kansas City Center
12:00AM 39.2833 -90.4264 341° North 369 425 25,600 2,160 Climbing Kansas City Center
12:01AM 39.3803 -90.4692 341° North 368 423 27,400 2,040 Climbing Kansas City Center
12:02AM 39.4781 -90.5139 341° North 372 428 29,800 1,980 Climbing Kansas City Center
12:03AM 39.5739 -90.5564 341° North 368 423 31,400 1,260 Climbing Kansas City Center
12:04AM 39.6719 -90.6017 340° North 371 427 32,400 1,200 Climbing Kansas City Center
12:05AM 39.7878 -90.6553 340° North 379 436 33,900 1,500 Climbing Kansas City Center
12:06AM 39.8878 -90.7011 341° North 379 436 35,500 1,020 Climbing Kansas City Center
12:07AM 39.9850 -90.7453 341° North 373 429 36,000 540 Climbing Kansas City Center
12:08AM 40.0881 -90.7931 340° North 382 440 36,600 720 Climbing Kansas City Center
12:09AM 40.1939 -90.8411 341° North 393 452 37,500 660 Climbing Kansas City Center
12:10AM 40.2983 -90.8897 340° North 397 457 38,000 240 Climbing Kansas City Center
12:11AM 40.4014 -90.9381 340° North 395 455 38,000  Level Kansas City Center
12:12AM 40.5064 -90.9872 340° North 396 456 38,000  Level Kansas City Center
12:17AM 41.0360 -91.2380 340° North 410 472 38,000  Level FlightAware
12:18AM 41.0970 -91.2710 338° Northwest 401 461 38,000  Level FlightAware
12:19AM 41.1850 -91.3110 341° North 401 461 38,000  Level FlightAware
12:20AM 41.2760 -91.3550 340° North 401 461 38,000  Level FlightAware
12:21AM 41.3290 -91.3810 340° North 401 461 38,000  Level FlightAware
12:21AM 41.4000 -91.4150 340° North 401 461 38,000  Level FlightAware
12:22AM 41.4710 -91.4500 340° North 401 461 38,000  Level FlightAware
12:23AM 41.5070 -91.4670 341° North 401 461 38,000  Level FlightAware
12:23AM 41.5600 -91.4930 340° North 401 461 38,000  Level FlightAware
12:24AM 41.6320 -91.5280 340° North 401 461 38,000  Level FlightAware
12:25AM 41.7200 -91.5710 340° North 401 461 38,000  Level FlightAware
12:26AM 41.8090 -91.6140 340° North 401 461 38,000  Level FlightAware
12:27AM 41.8800 -91.6490 340° North 401 461 38,000  Level FlightAware
12:28AM 41.9520 -91.6840 340° North 401 461 38,000  Level FlightAware
12:28AM 41.9890 -91.7020 340° North 401 461 38,000  Level FlightAware
12:28AM 42.0240 -91.7200 339° North 401 461 38,000  Level FlightAware
12:29AM 42.2956 -91.8531 339° North 398 458 38,000  Level Chicago Center
12:30AM 42.4000 -91.9044 340° North 400 460 38,000  Level Chicago Center
12:31AM 42.5042 -91.9558 340° North 400 460 38,000  Level Chicago Center
12:32AM 42.6069 -92.0069 340° North 393 452 38,000  Level Chicago Center
12:33AM 42.7100 -92.0608 339° North 395 455 38,000  Level Chicago Center
12:34AM 42.8131 -92.1136 339° North 396 456 38,000  Level Chicago Center
12:35AM 42.9153 -92.1669 339° North 394 453 38,000  Level Chicago Center
12:36AM 43.0172 -92.2183 340° North 392 451 38,000  Level Chicago Center
12:37AM 43.1192 -92.2703 340° North 392 451 38,000  Level Chicago Center
12:38AM 43.2192 -92.3222 339° North 387 445 38,000  Level Chicago Center
12:39AM 43.3192 -92.3731 340° North 385 443 38,000  Level Chicago Center
12:40AM 43.4381 -92.4353 339° North 384 442 38,000  Level Minneapolis Center
12:41AM 43.5361 -92.4875 339° North 382 440 38,000  Level Minneapolis Center
12:42AM 43.6353 -92.5400 339° North 383 441 38,000  Level Minneapolis Center
12:43AM 43.7356 -92.5903 340° North 387 445 38,000  Level Minneapolis Center
12:44AM 43.8483 -92.6511 339° North 387 445 38,000  Level Minneapolis Center
12:46AM 43.9492 -92.7039 339° North 386 444 38,000  Level Minneapolis Center
12:47AM 44.0497 -92.7567 339° North 386 444 38,000  Level Minneapolis Center
12:48AM 44.1511 -92.8108 339° North 390 449 38,000  Level Minneapolis Center
12:49AM 44.2514 -92.8647 339° North 387 445 38,000  Level Minneapolis Center
12:50AM 44.3525 -92.9189 339° North 389 448 38,000  Level Minneapolis Center
12:51AM 44.4544 -92.9717 340° North 392 451 38,000  Level Minneapolis Center
12:52AM 44.5550 -93.0264 339° North 389 448 38,000  Level Minneapolis Center
12:53AM 44.6558 -93.0800 339° North 389 448 38,000  Level Minneapolis Center
12:54AM 44.7600 -93.1364 339° North 393 452 38,000  Level Minneapolis Center
12:55AM 44.8603 -93.1908 339° North 392 451 38,000  Level Minneapolis Center
12:56AM 44.9522 -93.2400 339° North 388 447 38,000  Level Minneapolis Center
12:57AM 45.0531 -93.2950 339° North 390 449 38,000  Level Minneapolis Center
12:58AM 45.1550 -93.3519 339° North 392 451 38,000  Level Minneapolis Center
12:59AM 45.2564 -93.4089 338° Northwest 393 452 38,000  Level Minneapolis Center
01:00AM 45.3597 -93.4658 339° North 396 456 38,000  Level Minneapolis Center
01:01AM 45.4639 -93.5250 338° Northwest 401 461 38,000  Level Minneapolis Center
01:02AM 45.5692 -93.5853 338° Northwest 406 467 38,000  Level Minneapolis Center
01:03AM 45.6767 -93.6464 338° Northwest 412 474 38,000  Level Minneapolis Center
01:04AM 45.8072 -93.7203 338° Northwest 419 482 38,000  Level Minneapolis Center
01:05AM 45.9164 -93.7819 339° North 422 486 38,000  Level Minneapolis Center
01:06AM 46.0272 -93.8431 339° North 425 489 38,000  Level Minneapolis Center
01:07AM 46.1389 -93.9078 338° Northwest 429 494 38,000  Level Minneapolis Center
01:08AM 46.2294 -93.9614 338° Northwest 433 498 38,000  Level Minneapolis Center
01:09AM 46.3428 -94.0269 338° Northwest 437 503 38,000 -60 Level Minneapolis Center
01:10AM 46.4558 -94.0878 340° North 435 501 37,900  Descending Minneapolis Center
01:11AM 46.5714 -94.1453 341° North 437 503 38,000  Climbing Minneapolis Center
01:12AM 46.6861 -94.2064 340° North 438 504 38,000  Level Minneapolis Center
01:13AM 46.8003 -94.2686 340° North 438 504 38,000 -60 Level Minneapolis Center
01:14AM 46.9136 -94.3264 341° North 432 497 37,900 -60 Descending Minneapolis Center
01:15AM 47.0253 -94.3869 340° North 428 493 37,900  Level Minneapolis Center
01:16AM 47.1364 -94.4478 340° North 427 491 37,900  Level Minneapolis Center
01:17AM 47.2469 -94.5094 339° North 425 489 38,000  Climbing Minneapolis Center
01:18AM 47.3594 -94.5689 340° North 427 491 38,000 -60 Level Minneapolis Center
01:19AM 47.4700 -94.6294 340° North 426 490 37,900 -60 Descending Minneapolis Center
01:20AM 47.5778 -94.6911 339° North 420 483 37,900  Level Minneapolis Center
01:21AM 47.6872 -94.7514 340° North 419 482 38,000  Climbing Minneapolis Center
01:22AM 47.7967 -94.8122 340° North 419 482 38,000 -60 Level Minneapolis Center
01:23AM 47.9047 -94.8703 340° North 417 480 37,900 -60 Descending Minneapolis Center
01:24AM 48.0117 -94.9311 339° North 413 475 37,900  Level Minneapolis Center
01:25AM 48.1406 -95.0017 340° North 411 473 37,900  Level Minneapolis Center
01:26AM 48.2467 -95.0619 339° North 410 472 37,900  Level Minneapolis Center
01:27AM 48.3528 -95.1222 339° North 409 471 38,000  Climbing Minneapolis Center
01:28AM 48.4575 -95.1839 339° North 407 468 38,000  Level Minneapolis Center
01:29AM 48.5525 -95.2769 327° Northwest 413 475 38,000 -60 Level Minneapolis Center
01:30AM 48.6414 -95.3867 321° Northwest 414 476 37,900 -720 Descending Minneapolis Center
01:31AM 48.7292 -95.4961 321° Northwest 412 474 36,600 -1,740 Descending Minneapolis Center
01:32AM 48.8164 -95.6050 321° Northwest 405 466 34,500 -2,100 Descending Minneapolis Center
01:33AM 48.9003 -95.7089 321° Northwest 396 456 32,500 -1,980 Descending Minneapolis Center
01:34AM 48.9825 -95.8111 321° Northwest 388 447 30,600 -1,980 Descending Minneapolis Center
01:35AM 49.0667 -95.9500 313° West 370 426 27,800 -1,920 Descending Winnipeg Center
01:36AM 49.1500 -96.0167 332° Northwest 360 414 26,000 -1,920 Descending Winnipeg Center
01:37AM 49.2167 -96.1167 316° Northwest 350 403 24,000 -1,980 Descending Winnipeg Center
01:38AM 49.2833 -96.2167 316° Northwest 340 391 22,100 -1,980 Descending Winnipeg Center
01:39AM 49.3833 -96.3167 327° Northwest 330 380 20,100 -1,860 Descending Winnipeg Center
01:40AM 49.4500 -96.4000 321° Northwest 330 380 18,400 -1,680 Descending Winnipeg Center
01:41AM 49.5167 -96.4833 321° Northwest 310 357 16,800 -1,620 Descending Winnipeg Center
01:42AM 49.5667 -96.5500 319° Northwest 290 334 15,200 -1,620 Descending Winnipeg Center
01:43AM 49.6333 -96.6333 321° Northwest 290 334 13,600 -1,620 Descending Winnipeg Center
01:44AM 49.7000 -96.7000 327° Northwest 280 322 12,000 -1,740 Descending Winnipeg Center
01:45AM 49.7500 -96.7833 313° West 280 322 10,200 -1,860 Descending Winnipeg Center
01:46AM 49.8167 -96.8667 321° Northwest 280 322 8,300 -1,680 Descending Winnipeg Center
01:47AM 49.8833 -96.9333 327° Northwest 270 311 6,900 -1,680 Descending Winnipeg Center
01:48AM 49.9333 -97.0167 313° West 260 299 5,000 -1,560 Descending Winnipeg Center
01:49AM 50.0000 -97.0667 334° Northwest 250 288 3,800 -780 Descending Winnipeg Center
01:50AM 50.0333 -97.1500 302° West 200 230 3,500 -480 Descending Winnipeg Center
01:51AM 50.0167 -97.2000 243° Southwest 170 196 2,900 -720 Descending Winnipeg Center
01:52AM 49.9667 -97.2000 180° South 150 173 2,100 -840 Descending Winnipeg Center
01:53AM 49.9333 -97.2333 213° Southwest 110 127 1,300 -720 Descending Winnipeg Center
01:54AM 49.9000 -97.2333 180° South 120 138 700 -600 Descending Winnipeg Center